sensor_id;sensor_type;location;lat;lon;timestamp;P1;durP1;ratioP1;P2;durP2;ratioP2
17814;SDS011;9031;50.974;11.330;2023-03-04T00:00:20;14.83;;;9.00;;
17814;SDS011;9031;50.974;11.330;2023-03-04T00:02:46;16.43;;;10.83;;
17814;SDS011;9031;50.974;11.330;2023-03-04T00:05:12;16.63;;;9.50;;
17814;SDS011;9031;50.974;11.330;2023-03-04T00:07:37;13.53;;;8.97;;
17814;SDS011;9031;50.974;11.330;2023-03-04T00:10:03;15.43;;;10.87;;
17814;SDS011;9031;50.974;11.330;2023-03-04T00:12:29;17.10;;;10.47;;
17814;SDS011;9031;50.974;11.330;2023-03-04T00:14:55;14.87;;;9.43;;
17814;SDS011;9031;50.974;11.330;2023-03-04T00:17:20;14.20;;;9.00;;
17814;SDS011;9031;50.974;11.330;2023-03-04T00:19:46;14.87;;;9.17;;
17814;SDS011;9031;50.974;11.330;2023-03-04T00:22:11;13.10;;;8.80;;
17814;SDS011;9031;50.974;11.330;2023-03-04T00:24:37;16.03;;;9.87;;
17814;SDS011;9031;50.974;11.330;2023-03-04T00:27:03;14.60;;;9.63;;
17814;SDS011;9031;50.974;11.330;2023-03-04T00:29:28;16.27;;;10.23;;
17814;SDS011;9031;50.974;11.330;2023-03-04T00:31:54;17.00;;;9.43;;
17814;SDS011;9031;50.974;11.330;2023-03-04T00:34:19;14.97;;;10.17;;
17814;SDS011;9031;50.974;11.330;2023-03-04T00:36:45;17.17;;;10.13;;
17814;SDS011;9031;50.974;11.330;2023-03-04T00:39:11;15.53;;;9.33;;
17814;SDS011;9031;50.974;11.330;2023-03-04T00:41:37;17.87;;;10.70;;
17814;SDS011;9031;50.974;11.330;2023-03-04T00:44:03;17.23;;;10.30;;
17814;SDS011;9031;50.974;11.330;2023-03-04T00:46:29;16.83;;;9.73;;
17814;SDS011;9031;50.974;11.330;2023-03-04T00:48:54;15.17;;;9.47;;
17814;SDS011;9031;50.974;11.330;2023-03-04T00:51:19;17.03;;;10.80;;
17814;SDS011;9031;50.974;11.330;2023-03-04T00:53:45;16.93;;;9.30;;
17814;SDS011;9031;50.974;11.330;2023-03-04T00:56:11;17.77;;;11.00;;
17814;SDS011;9031;50.974;11.330;2023-03-04T00:58:37;15.77;;;9.23;;
17814;SDS011;9031;50.974;11.330;2023-03-04T01:01:04;15.73;;;8.97;;
17814;SDS011;9031;50.974;11.330;2023-03-04T01:03:30;15.37;;;9.17;;
17814;SDS011;9031;50.974;11.330;2023-03-04T01:05:57;15.60;;;8.83;;
17814;SDS011;9031;50.974;11.330;2023-03-04T01:08:23;17.43;;;9.43;;
17814;SDS011;9031;50.974;11.330;2023-03-04T01:10:48;14.40;;;9.20;;
17814;SDS011;9031;50.974;11.330;2023-03-04T01:13:14;16.13;;;9.77;;
17814;SDS011;9031;50.974;11.330;2023-03-04T01:15:39;16.93;;;9.77;;
17814;SDS011;9031;50.974;11.330;2023-03-04T01:18:05;15.20;;;9.37;;
17814;SDS011;9031;50.974;11.330;2023-03-04T01:20:30;15.40;;;10.43;;
17814;SDS011;9031;50.974;11.330;2023-03-04T01:22:56;15.73;;;9.43;;
17814;SDS011;9031;50.974;11.330;2023-03-04T01:25:21;16.67;;;10.10;;
17814;SDS011;9031;50.974;11.330;2023-03-04T01:27:47;15.57;;;10.40;;
17814;SDS011;9031;50.974;11.330;2023-03-04T01:30:12;15.60;;;10.30;;
17814;SDS011;9031;50.974;11.330;2023-03-04T01:32:38;14.33;;;9.37;;
17814;SDS011;9031;50.974;11.330;2023-03-04T01:35:03;18.57;;;10.87;;
17814;SDS011;9031;50.974;11.330;2023-03-04T01:37:29;16.07;;;11.27;;
17814;SDS011;9031;50.974;11.330;2023-03-04T01:39:55;15.77;;;10.07;;
17814;SDS011;9031;50.974;11.330;2023-03-04T01:42:21;18.70;;;10.83;;
17814;SDS011;9031;50.974;11.330;2023-03-04T01:44:48;16.27;;;9.70;;
17814;SDS011;9031;50.974;11.330;2023-03-04T01:47:14;15.90;;;9.73;;
17814;SDS011;9031;50.974;11.330;2023-03-04T01:49:41;16.20;;;9.57;;
17814;SDS011;9031;50.974;11.330;2023-03-04T01:52:13;18.47;;;10.33;;
17814;SDS011;9031;50.974;11.330;2023-03-04T01:54:39;15.37;;;9.60;;
17814;SDS011;9031;50.974;11.330;2023-03-04T01:57:15;14.17;;;9.73;;
17814;SDS011;9031;50.974;11.330;2023-03-04T02:02:47;14.97;;;9.97;;
17814;SDS011;9031;50.974;11.330;2023-03-04T02:05:16;16.73;;;10.70;;
17814;SDS011;9031;50.974;11.330;2023-03-04T02:07:41;17.90;;;10.67;;
17814;SDS011;9031;50.974;11.330;2023-03-04T02:10:08;16.47;;;9.80;;
17814;SDS011;9031;50.974;11.330;2023-03-04T02:12:34;16.33;;;10.53;;
17814;SDS011;9031;50.974;11.330;2023-03-04T02:15:00;15.43;;;9.30;;
17814;SDS011;9031;50.974;11.330;2023-03-04T02:17:26;15.37;;;9.50;;
17814;SDS011;9031;50.974;11.330;2023-03-04T02:19:58;15.97;;;9.97;;
17814;SDS011;9031;50.974;11.330;2023-03-04T02:22:26;16.57;;;10.60;;
17814;SDS011;9031;50.974;11.330;2023-03-04T02:24:53;15.07;;;10.17;;
17814;SDS011;9031;50.974;11.330;2023-03-04T02:27:24;16.63;;;10.87;;
17814;SDS011;9031;50.974;11.330;2023-03-04T02:29:50;14.90;;;10.20;;
17814;SDS011;9031;50.974;11.330;2023-03-04T02:32:15;13.20;;;9.37;;
17814;SDS011;9031;50.974;11.330;2023-03-04T02:34:45;13.43;;;8.87;;
17814;SDS011;9031;50.974;11.330;2023-03-04T02:37:13;11.87;;;8.97;;
17814;SDS011;9031;50.974;11.330;2023-03-04T02:39:43;16.37;;;9.70;;
17814;SDS011;9031;50.974;11.330;2023-03-04T02:42:09;16.77;;;9.97;;
17814;SDS011;9031;50.974;11.330;2023-03-04T02:44:36;14.53;;;9.43;;
17814;SDS011;9031;50.974;11.330;2023-03-04T02:47:05;15.63;;;9.40;;
17814;SDS011;9031;50.974;11.330;2023-03-04T02:49:33;13.93;;;9.90;;
17814;SDS011;9031;50.974;11.330;2023-03-04T02:52:04;17.63;;;9.87;;
17814;SDS011;9031;50.974;11.330;2023-03-04T02:54:34;13.97;;;9.60;;
17814;SDS011;9031;50.974;11.330;2023-03-04T02:57:00;15.17;;;9.60;;
17814;SDS011;9031;50.974;11.330;2023-03-04T02:59:29;14.57;;;9.80;;
17814;SDS011;9031;50.974;11.330;2023-03-04T03:01:55;15.57;;;10.10;;
17814;SDS011;9031;50.974;11.330;2023-03-04T03:04:21;17.90;;;10.40;;
17814;SDS011;9031;50.974;11.330;2023-03-04T03:06:47;15.43;;;9.53;;
17814;SDS011;9031;50.974;11.330;2023-03-04T03:09:13;17.93;;;10.13;;
17814;SDS011;9031;50.974;11.330;2023-03-04T03:11:39;15.33;;;9.67;;
17814;SDS011;9031;50.974;11.330;2023-03-04T03:14:04;15.20;;;9.50;;
17814;SDS011;9031;50.974;11.330;2023-03-04T03:16:30;15.30;;;9.83;;
17814;SDS011;9031;50.974;11.330;2023-03-04T03:18:56;16.10;;;9.17;;
17814;SDS011;9031;50.974;11.330;2023-03-04T03:21:22;14.13;;;8.83;;
17814;SDS011;9031;50.974;11.330;2023-03-04T03:23:47;14.80;;;9.97;;
17814;SDS011;9031;50.974;11.330;2023-03-04T03:26:14;13.33;;;9.30;;
17814;SDS011;9031;50.974;11.330;2023-03-04T03:28:40;16.03;;;9.20;;
17814;SDS011;9031;50.974;11.330;2023-03-04T03:31:05;13.53;;;8.97;;
17814;SDS011;9031;50.974;11.330;2023-03-04T03:33:31;11.87;;;9.17;;
17814;SDS011;9031;50.974;11.330;2023-03-04T03:35:57;20.07;;;9.80;;
17814;SDS011;9031;50.974;11.330;2023-03-04T03:38:22;14.57;;;8.93;;
17814;SDS011;9031;50.974;11.330;2023-03-04T03:40:48;13.50;;;8.57;;
17814;SDS011;9031;50.974;11.330;2023-03-04T03:43:13;14.40;;;9.00;;
17814;SDS011;9031;50.974;11.330;2023-03-04T03:45:39;12.63;;;8.87;;
17814;SDS011;9031;50.974;11.330;2023-03-04T03:48:04;15.57;;;8.33;;
17814;SDS011;9031;50.974;11.330;2023-03-04T03:50:30;15.80;;;8.87;;
17814;SDS011;9031;50.974;11.330;2023-03-04T03:52:55;14.33;;;8.37;;
17814;SDS011;9031;50.974;11.330;2023-03-04T03:55:21;11.47;;;8.13;;
17814;SDS011;9031;50.974;11.330;2023-03-04T03:57:47;15.90;;;8.10;;
17814;SDS011;9031;50.974;11.330;2023-03-04T04:00:12;14.77;;;8.23;;
17814;SDS011;9031;50.974;11.330;2023-03-04T04:02:39;17.17;;;7.67;;
17814;SDS011;9031;50.974;11.330;2023-03-04T04:05:05;11.90;;;7.47;;
17814;SDS011;9031;50.974;11.330;2023-03-04T04:07:32;14.23;;;7.77;;
17814;SDS011;9031;50.974;11.330;2023-03-04T04:09:57;13.87;;;8.03;;
17814;SDS011;9031;50.974;11.330;2023-03-04T04:12:23;12.57;;;7.70;;
17814;SDS011;9031;50.974;11.330;2023-03-04T04:14:48;13.03;;;7.43;;
17814;SDS011;9031;50.974;11.330;2023-03-04T04:17:14;10.77;;;7.30;;
17814;SDS011;9031;50.974;11.330;2023-03-04T04:19:40;14.87;;;7.63;;
17814;SDS011;9031;50.974;11.330;2023-03-04T04:22:15;15.97;;;7.17;;
17814;SDS011;9031;50.974;11.330;2023-03-04T04:24:42;11.57;;;6.80;;
17814;SDS011;9031;50.974;11.330;2023-03-04T04:27:08;17.50;;;7.57;;
17814;SDS011;9031;50.974;11.330;2023-03-04T04:29:33;13.80;;;8.33;;
17814;SDS011;9031;50.974;11.330;2023-03-04T04:31:59;11.37;;;6.77;;
17814;SDS011;9031;50.974;11.330;2023-03-04T04:34:25;12.83;;;6.40;;
17814;SDS011;9031;50.974;11.330;2023-03-04T04:36:50;12.83;;;6.93;;
17814;SDS011;9031;50.974;11.330;2023-03-04T04:39:16;14.77;;;6.90;;
17814;SDS011;9031;50.974;11.330;2023-03-04T04:41:42;11.30;;;6.60;;
17814;SDS011;9031;50.974;11.330;2023-03-04T04:44:09;13.00;;;6.87;;
17814;SDS011;9031;50.974;11.330;2023-03-04T04:46:35;18.27;;;7.73;;
17814;SDS011;9031;50.974;11.330;2023-03-04T04:49:01;14.27;;;6.57;;
17814;SDS011;9031;50.974;11.330;2023-03-04T04:51:27;13.07;;;6.90;;
17814;SDS011;9031;50.974;11.330;2023-03-04T04:53:53;10.17;;;6.43;;
17814;SDS011;9031;50.974;11.330;2023-03-04T04:56:19;11.60;;;7.17;;
17814;SDS011;9031;50.974;11.330;2023-03-04T04:58:47;12.63;;;6.87;;
17814;SDS011;9031;50.974;11.330;2023-03-04T05:01:13;12.27;;;6.83;;
17814;SDS011;9031;50.974;11.330;2023-03-04T05:03:38;14.63;;;7.50;;
17814;SDS011;9031;50.974;11.330;2023-03-04T05:06:05;10.30;;;6.87;;
17814;SDS011;9031;50.974;11.330;2023-03-04T05:08:32;12.80;;;6.07;;
17814;SDS011;9031;50.974;11.330;2023-03-04T05:10:58;15.17;;;6.87;;
17814;SDS011;9031;50.974;11.330;2023-03-04T05:13:24;15.80;;;7.20;;
17814;SDS011;9031;50.974;11.330;2023-03-04T05:15:51;13.47;;;6.40;;
17814;SDS011;9031;50.974;11.330;2023-03-04T05:18:18;19.90;;;6.33;;
17814;SDS011;9031;50.974;11.330;2023-03-04T05:20:44;17.17;;;6.53;;
17814;SDS011;9031;50.974;11.330;2023-03-04T05:23:13;14.93;;;6.67;;
17814;SDS011;9031;50.974;11.330;2023-03-04T05:25:39;13.93;;;6.33;;
17814;SDS011;9031;50.974;11.330;2023-03-04T05:28:04;14.57;;;6.90;;
17814;SDS011;9031;50.974;11.330;2023-03-04T05:30:31;14.27;;;6.53;;
17814;SDS011;9031;50.974;11.330;2023-03-04T05:32:56;14.70;;;5.90;;
17814;SDS011;9031;50.974;11.330;2023-03-04T05:35:22;12.33;;;5.77;;
17814;SDS011;9031;50.974;11.330;2023-03-04T05:37:47;12.27;;;7.00;;
17814;SDS011;9031;50.974;11.330;2023-03-04T05:40:13;13.03;;;6.40;;
17814;SDS011;9031;50.974;11.330;2023-03-04T05:42:38;12.00;;;6.10;;
17814;SDS011;9031;50.974;11.330;2023-03-04T05:45:04;10.50;;;5.53;;
17814;SDS011;9031;50.974;11.330;2023-03-04T05:47:30;15.10;;;6.27;;
17814;SDS011;9031;50.974;11.330;2023-03-04T05:49:56;9.73;;;5.53;;
17814;SDS011;9031;50.974;11.330;2023-03-04T05:52:22;11.43;;;5.57;;
17814;SDS011;9031;50.974;11.330;2023-03-04T05:54:47;12.63;;;6.17;;
17814;SDS011;9031;50.974;11.330;2023-03-04T05:57:13;14.50;;;5.90;;
17814;SDS011;9031;50.974;11.330;2023-03-04T05:59:38;15.00;;;5.80;;
17814;SDS011;9031;50.974;11.330;2023-03-04T06:02:04;13.27;;;5.83;;
17814;SDS011;9031;50.974;11.330;2023-03-04T06:04:29;10.40;;;5.57;;
17814;SDS011;9031;50.974;11.330;2023-03-04T06:06:54;11.40;;;5.10;;
17814;SDS011;9031;50.974;11.330;2023-03-04T06:09:20;14.73;;;5.63;;
17814;SDS011;9031;50.974;11.330;2023-03-04T06:11:45;10.23;;;5.67;;
17814;SDS011;9031;50.974;11.330;2023-03-04T06:14:11;15.70;;;6.00;;
17814;SDS011;9031;50.974;11.330;2023-03-04T06:16:36;11.20;;;5.70;;
17814;SDS011;9031;50.974;11.330;2023-03-04T06:19:02;13.57;;;5.93;;
17814;SDS011;9031;50.974;11.330;2023-03-04T06:21:28;12.53;;;5.53;;
17814;SDS011;9031;50.974;11.330;2023-03-04T06:23:53;10.43;;;5.57;;
17814;SDS011;9031;50.974;11.330;2023-03-04T06:26:19;12.03;;;5.13;;
17814;SDS011;9031;50.974;11.330;2023-03-04T06:28:44;12.50;;;5.07;;
17814;SDS011;9031;50.974;11.330;2023-03-04T06:31:10;11.97;;;5.00;;
17814;SDS011;9031;50.974;11.330;2023-03-04T06:33:35;10.43;;;4.67;;
17814;SDS011;9031;50.974;11.330;2023-03-04T06:36:01;12.77;;;5.03;;
17814;SDS011;9031;50.974;11.330;2023-03-04T06:38:27;10.40;;;4.60;;
17814;SDS011;9031;50.974;11.330;2023-03-04T06:40:52;9.30;;;4.30;;
17814;SDS011;9031;50.974;11.330;2023-03-04T06:43:19;8.63;;;4.40;;
17814;SDS011;9031;50.974;11.330;2023-03-04T06:45:44;14.53;;;4.77;;
17814;SDS011;9031;50.974;11.330;2023-03-04T06:48:10;9.73;;;4.50;;
17814;SDS011;9031;50.974;11.330;2023-03-04T06:50:40;9.37;;;4.70;;
17814;SDS011;9031;50.974;11.330;2023-03-04T06:53:05;10.60;;;4.20;;
17814;SDS011;9031;50.974;11.330;2023-03-04T06:55:31;13.27;;;5.03;;
17814;SDS011;9031;50.974;11.330;2023-03-04T06:57:56;12.20;;;5.13;;
17814;SDS011;9031;50.974;11.330;2023-03-04T07:00:22;9.23;;;4.40;;
17814;SDS011;9031;50.974;11.330;2023-03-04T07:02:50;8.93;;;4.67;;
17814;SDS011;9031;50.974;11.330;2023-03-04T07:05:15;6.40;;;4.10;;
17814;SDS011;9031;50.974;11.330;2023-03-04T07:07:41;9.37;;;3.70;;
17814;SDS011;9031;50.974;11.330;2023-03-04T07:10:07;10.83;;;3.90;;
17814;SDS011;9031;50.974;11.330;2023-03-04T07:12:34;9.70;;;4.37;;
17814;SDS011;9031;50.974;11.330;2023-03-04T07:14:59;9.10;;;4.53;;
17814;SDS011;9031;50.974;11.330;2023-03-04T07:17:25;11.77;;;4.67;;
17814;SDS011;9031;50.974;11.330;2023-03-04T07:19:50;6.70;;;3.60;;
17814;SDS011;9031;50.974;11.330;2023-03-04T07:22:16;9.07;;;4.27;;
17814;SDS011;9031;50.974;11.330;2023-03-04T07:24:41;10.57;;;4.23;;
17814;SDS011;9031;50.974;11.330;2023-03-04T07:27:07;6.97;;;3.50;;
17814;SDS011;9031;50.974;11.330;2023-03-04T07:29:32;11.93;;;4.33;;
17814;SDS011;9031;50.974;11.330;2023-03-04T07:31:58;10.67;;;4.40;;
17814;SDS011;9031;50.974;11.330;2023-03-04T07:34:23;7.37;;;3.43;;
17814;SDS011;9031;50.974;11.330;2023-03-04T07:36:49;7.93;;;3.63;;
17814;SDS011;9031;50.974;11.330;2023-03-04T07:39:14;7.50;;;3.43;;
17814;SDS011;9031;50.974;11.330;2023-03-04T07:41:40;7.93;;;3.70;;
17814;SDS011;9031;50.974;11.330;2023-03-04T07:44:06;7.00;;;3.60;;
17814;SDS011;9031;50.974;11.330;2023-03-04T07:46:33;11.30;;;3.70;;
17814;SDS011;9031;50.974;11.330;2023-03-04T07:48:59;12.87;;;3.93;;
17814;SDS011;9031;50.974;11.330;2023-03-04T07:51:25;7.23;;;3.97;;
17814;SDS011;9031;50.974;11.330;2023-03-04T07:53:55;10.67;;;3.40;;
17814;SDS011;9031;50.974;11.330;2023-03-04T07:56:25;8.60;;;3.20;;
17814;SDS011;9031;50.974;11.330;2023-03-04T07:58:52;12.10;;;4.10;;
17814;SDS011;9031;50.974;11.330;2023-03-04T08:01:21;8.37;;;3.47;;
17814;SDS011;9031;50.974;11.330;2023-03-04T08:03:48;8.97;;;3.50;;
17814;SDS011;9031;50.974;11.330;2023-03-04T08:06:14;6.93;;;2.93;;
17814;SDS011;9031;50.974;11.330;2023-03-04T08:08:40;11.27;;;3.60;;
17814;SDS011;9031;50.974;11.330;2023-03-04T08:11:07;7.43;;;3.67;;
17814;SDS011;9031;50.974;11.330;2023-03-04T08:13:42;10.77;;;3.47;;
17814;SDS011;9031;50.974;11.330;2023-03-04T08:16:08;13.07;;;3.47;;
17814;SDS011;9031;50.974;11.330;2023-03-04T08:18:45;8.13;;;3.67;;
17814;SDS011;9031;50.974;11.330;2023-03-04T08:21:13;6.37;;;3.07;;
17814;SDS011;9031;50.974;11.330;2023-03-04T08:23:40;9.33;;;3.40;;
17814;SDS011;9031;50.974;11.330;2023-03-04T08:26:11;7.80;;;3.50;;
17814;SDS011;9031;50.974;11.330;2023-03-04T08:28:59;10.40;;;3.03;;
17814;SDS011;9031;50.974;11.330;2023-03-04T08:31:28;9.00;;;3.00;;
17814;SDS011;9031;50.974;11.330;2023-03-04T08:33:54;10.03;;;2.77;;
17814;SDS011;9031;50.974;11.330;2023-03-04T08:36:20;9.70;;;2.90;;
17814;SDS011;9031;50.974;11.330;2023-03-04T08:38:46;5.30;;;2.60;;
17814;SDS011;9031;50.974;11.330;2023-03-04T08:41:11;7.60;;;2.90;;
17814;SDS011;9031;50.974;11.330;2023-03-04T08:43:37;5.50;;;2.50;;
17814;SDS011;9031;50.974;11.330;2023-03-04T08:46:03;5.27;;;2.50;;
17814;SDS011;9031;50.974;11.330;2023-03-04T08:48:30;10.83;;;2.77;;
17814;SDS011;9031;50.974;11.330;2023-03-04T08:50:56;7.60;;;2.60;;
17814;SDS011;9031;50.974;11.330;2023-03-04T08:53:21;6.57;;;2.13;;
17814;SDS011;9031;50.974;11.330;2023-03-04T08:55:47;6.23;;;2.73;;
17814;SDS011;9031;50.974;11.330;2023-03-04T08:58:14;5.10;;;2.20;;
17814;SDS011;9031;50.974;11.330;2023-03-04T09:00:41;6.73;;;2.67;;
17814;SDS011;9031;50.974;11.330;2023-03-04T09:03:09;4.60;;;2.37;;
17814;SDS011;9031;50.974;11.330;2023-03-04T09:05:36;4.70;;;1.93;;
17814;SDS011;9031;50.974;11.330;2023-03-04T09:08:03;5.80;;;2.07;;
17814;SDS011;9031;50.974;11.330;2023-03-04T09:10:28;3.30;;;2.17;;
17814;SDS011;9031;50.974;11.330;2023-03-04T09:12:54;5.80;;;2.20;;
17814;SDS011;9031;50.974;11.330;2023-03-04T09:15:20;3.90;;;1.87;;
17814;SDS011;9031;50.974;11.330;2023-03-04T09:17:45;6.63;;;2.23;;
17814;SDS011;9031;50.974;11.330;2023-03-04T09:20:11;3.97;;;2.43;;
17814;SDS011;9031;50.974;11.330;2023-03-04T09:22:37;3.20;;;2.03;;
17814;SDS011;9031;50.974;11.330;2023-03-04T09:25:04;4.43;;;2.07;;
17814;SDS011;9031;50.974;11.330;2023-03-04T09:27:30;5.00;;;2.20;;
17814;SDS011;9031;50.974;11.330;2023-03-04T09:29:56;5.47;;;2.10;;
17814;SDS011;9031;50.974;11.330;2023-03-04T09:32:21;3.00;;;1.80;;
17814;SDS011;9031;50.974;11.330;2023-03-04T09:34:47;3.13;;;1.80;;
17814;SDS011;9031;50.974;11.330;2023-03-04T09:37:12;5.17;;;1.90;;
17814;SDS011;9031;50.974;11.330;2023-03-04T09:39:38;3.67;;;2.23;;
17814;SDS011;9031;50.974;11.330;2023-03-04T09:42:04;6.00;;;1.80;;
17814;SDS011;9031;50.974;11.330;2023-03-04T09:44:32;4.97;;;1.83;;
17814;SDS011;9031;50.974;11.330;2023-03-04T09:47:02;3.93;;;1.90;;
17814;SDS011;9031;50.974;11.330;2023-03-04T09:49:30;5.40;;;2.17;;
17814;SDS011;9031;50.974;11.330;2023-03-04T09:54:29;4.27;;;1.63;;
17814;SDS011;9031;50.974;11.330;2023-03-04T09:57:14;4.47;;;1.60;;
17814;SDS011;9031;50.974;11.330;2023-03-04T09:59:55;6.33;;;2.00;;
17814;SDS011;9031;50.974;11.330;2023-03-04T10:02:34;4.93;;;2.00;;
17814;SDS011;9031;50.974;11.330;2023-03-04T10:05:16;7.60;;;1.87;;
17814;SDS011;9031;50.974;11.330;2023-03-04T10:07:45;3.30;;;1.57;;
17814;SDS011;9031;50.974;11.330;2023-03-04T10:10:21;4.93;;;1.80;;
17814;SDS011;9031;50.974;11.330;2023-03-04T10:12:51;1.87;;;1.77;;
17814;SDS011;9031;50.974;11.330;2023-03-04T10:18:19;7.47;;;2.43;;
17814;SDS011;9031;50.974;11.330;2023-03-04T10:20:52;3.97;;;1.50;;
17814;SDS011;9031;50.974;11.330;2023-03-04T10:23:27;2.17;;;1.70;;
17814;SDS011;9031;50.974;11.330;2023-03-04T10:25:54;1.90;;;1.50;;
17814;SDS011;9031;50.974;11.330;2023-03-04T10:28:26;3.87;;;1.53;;
17814;SDS011;9031;50.974;11.330;2023-03-04T10:33:41;5.10;;;1.60;;
17814;SDS011;9031;50.974;11.330;2023-03-04T10:39:01;3.23;;;1.70;;
17814;SDS011;9031;50.974;11.330;2023-03-04T10:41:32;2.40;;;1.40;;
17814;SDS011;9031;50.974;11.330;2023-03-04T10:46:25;3.20;;;1.60;;
17814;SDS011;9031;50.974;11.330;2023-03-04T10:48:51;2.30;;;1.37;;
17814;SDS011;9031;50.974;11.330;2023-03-04T10:51:18;1.73;;;1.40;;
17814;SDS011;9031;50.974;11.330;2023-03-04T10:53:49;1.70;;;1.40;;
17814;SDS011;9031;50.974;11.330;2023-03-04T10:56:39;2.53;;;1.77;;
17814;SDS011;9031;50.974;11.330;2023-03-04T10:59:27;1.73;;;1.63;;
17814;SDS011;9031;50.974;11.330;2023-03-04T11:02:21;3.93;;;1.73;;
17814;SDS011;9031;50.974;11.330;2023-03-04T11:07:30;1.77;;;1.50;;
17814;SDS011;9031;50.974;11.330;2023-03-04T11:10:07;3.83;;;2.00;;
17814;SDS011;9031;50.974;11.330;2023-03-04T11:12:41;4.70;;;1.67;;
17814;SDS011;9031;50.974;11.330;2023-03-04T11:15:18;2.83;;;1.60;;
17814;SDS011;9031;50.974;11.330;2023-03-04T11:17:51;1.97;;;1.87;;
17814;SDS011;9031;50.974;11.330;2023-03-04T11:20:25;3.20;;;1.83;;
17814;SDS011;9031;50.974;11.330;2023-03-04T11:22:53;2.07;;;1.77;;
17814;SDS011;9031;50.974;11.330;2023-03-04T11:25:25;5.17;;;2.10;;
17814;SDS011;9031;50.974;11.330;2023-03-04T11:27:53;2.67;;;1.60;;
17814;SDS011;9031;50.974;11.330;2023-03-04T11:30:27;2.00;;;1.70;;
17814;SDS011;9031;50.974;11.330;2023-03-04T11:33:14;3.40;;;1.67;;
17814;SDS011;9031;50.974;11.330;2023-03-04T11:36:05;7.07;;;3.20;;
17814;SDS011;9031;50.974;11.330;2023-03-04T11:38:49;3.17;;;1.73;;
17814;SDS011;9031;50.974;11.330;2023-03-04T11:41:17;4.27;;;1.47;;
17814;SDS011;9031;50.974;11.330;2023-03-04T11:43:49;3.87;;;1.87;;
17814;SDS011;9031;50.974;11.330;2023-03-04T11:46:23;4.03;;;1.73;;
17814;SDS011;9031;50.974;11.330;2023-03-04T11:48:58;3.77;;;1.63;;
17814;SDS011;9031;50.974;11.330;2023-03-04T11:54:31;5.20;;;1.43;;
17814;SDS011;9031;50.974;11.330;2023-03-04T11:57:32;1.70;;;1.60;;
17814;SDS011;9031;50.974;11.330;2023-03-04T12:00:23;3.37;;;2.60;;
17814;SDS011;9031;50.974;11.330;2023-03-04T12:16:40;2.73;;;1.43;;
17814;SDS011;9031;50.974;11.330;2023-03-04T12:30:27;3.27;;;2.10;;
17814;SDS011;9031;50.974;11.330;2023-03-04T12:33:12;5.37;;;2.17;;
17814;SDS011;9031;50.974;11.330;2023-03-04T12:35:52;2.83;;;1.50;;
17814;SDS011;9031;50.974;11.330;2023-03-04T12:41:21;2.23;;;1.50;;
17814;SDS011;9031;50.974;11.330;2023-03-04T12:44:04;2.60;;;1.50;;
17814;SDS011;9031;50.974;11.330;2023-03-04T12:55:35;4.00;;;1.67;;
17814;SDS011;9031;50.974;11.330;2023-03-04T12:58:02;3.93;;;2.07;;
17814;SDS011;9031;50.974;11.330;2023-03-04T13:00:33;3.20;;;1.80;;
17814;SDS011;9031;50.974;11.330;2023-03-04T13:14:34;2.23;;;1.47;;
17814;SDS011;9031;50.974;11.330;2023-03-04T13:16:44;3.13;;;1.63;;
17814;SDS011;9031;50.974;11.330;2023-03-04T13:25:00;1.87;;;1.70;;
17814;SDS011;9031;50.974;11.330;2023-03-04T13:27:47;4.20;;;1.47;;
17814;SDS011;9031;50.974;11.330;2023-03-04T13:41:13;2.40;;;1.70;;
17814;SDS011;9031;50.974;11.330;2023-03-04T13:43:45;3.40;;;1.53;;
17814;SDS011;9031;50.974;11.330;2023-03-04T13:54:06;2.33;;;1.47;;
17814;SDS011;9031;50.974;11.330;2023-03-04T13:59:40;2.50;;;1.40;;
17814;SDS011;9031;50.974;11.330;2023-03-04T14:04:41;2.70;;;1.47;;
17814;SDS011;9031;50.974;11.330;2023-03-04T14:07:19;2.93;;;1.23;;
17814;SDS011;9031;50.974;11.330;2023-03-04T14:10:01;1.43;;;1.33;;
17814;SDS011;9031;50.974;11.330;2023-03-04T14:12:30;2.30;;;1.93;;
17814;SDS011;9031;50.974;11.330;2023-03-04T14:15:04;4.60;;;2.63;;
17814;SDS011;9031;50.974;11.330;2023-03-04T14:17:47;2.70;;;2.10;;
17814;SDS011;9031;50.974;11.330;2023-03-04T14:22:59;2.37;;;1.83;;
17814;SDS011;9031;50.974;11.330;2023-03-04T14:25:29;8.33;;;4.17;;
17814;SDS011;9031;50.974;11.330;2023-03-04T14:28:09;1.70;;;1.60;;
17814;SDS011;9031;50.974;11.330;2023-03-04T14:30:40;1.90;;;1.80;;
17814;SDS011;9031;50.974;11.330;2023-03-04T14:33:08;1.77;;;1.30;;
17814;SDS011;9031;50.974;11.330;2023-03-04T14:35:38;2.47;;;1.10;;
17814;SDS011;9031;50.974;11.330;2023-03-04T14:41:07;2.50;;;1.80;;
17814;SDS011;9031;50.974;11.330;2023-03-04T14:43:53;1.57;;;1.40;;
17814;SDS011;9031;50.974;11.330;2023-03-04T14:46:23;1.73;;;1.60;;
17814;SDS011;9031;50.974;11.330;2023-03-04T14:48:53;1.63;;;1.53;;
17814;SDS011;9031;50.974;11.330;2023-03-04T14:51:37;1.50;;;1.40;;
17814;SDS011;9031;50.974;11.330;2023-03-04T14:54:22;3.63;;;1.60;;
17814;SDS011;9031;50.974;11.330;2023-03-04T14:57:15;8.10;;;4.37;;
17814;SDS011;9031;50.974;11.330;2023-03-04T14:59:47;12.90;;;6.70;;
17814;SDS011;9031;50.974;11.330;2023-03-04T15:02:27;5.07;;;3.77;;
17814;SDS011;9031;50.974;11.330;2023-03-04T15:07:39;1.67;;;1.57;;
17814;SDS011;9031;50.974;11.330;2023-03-04T15:10:07;4.90;;;3.10;;
17814;SDS011;9031;50.974;11.330;2023-03-04T15:12:36;2.20;;;2.00;;
17814;SDS011;9031;50.974;11.330;2023-03-04T15:15:04;2.53;;;2.20;;
17814;SDS011;9031;50.974;11.330;2023-03-04T15:17:57;2.60;;;1.50;;
17814;SDS011;9031;50.974;11.330;2023-03-04T15:20:27;1.67;;;1.57;;
17814;SDS011;9031;50.974;11.330;2023-03-04T15:25:21;1.73;;;1.63;;
17814;SDS011;9031;50.974;11.330;2023-03-04T15:27:48;2.50;;;2.07;;
17814;SDS011;9031;50.974;11.330;2023-03-04T15:32:45;3.37;;;2.00;;
17814;SDS011;9031;50.974;11.330;2023-03-04T15:35:12;2.97;;;2.20;;
17814;SDS011;9031;50.974;11.330;2023-03-04T15:37:38;2.60;;;2.40;;
17814;SDS011;9031;50.974;11.330;2023-03-04T15:40:05;2.33;;;2.00;;
17814;SDS011;9031;50.974;11.330;2023-03-04T15:42:55;1.70;;;1.60;;
17814;SDS011;9031;50.974;11.330;2023-03-04T15:45:24;2.07;;;1.87;;
17814;SDS011;9031;50.974;11.330;2023-03-04T15:47:52;2.50;;;1.60;;
17814;SDS011;9031;50.974;11.330;2023-03-04T15:50:18;2.20;;;1.90;;
17814;SDS011;9031;50.974;11.330;2023-03-04T15:52:45;1.80;;;1.70;;
17814;SDS011;9031;50.974;11.330;2023-03-04T15:55:17;2.53;;;1.73;;
17814;SDS011;9031;50.974;11.330;2023-03-04T15:57:45;2.40;;;1.57;;
17814;SDS011;9031;50.974;11.330;2023-03-04T16:00:15;1.70;;;1.60;;
17814;SDS011;9031;50.974;11.330;2023-03-04T16:02:41;2.27;;;2.03;;
17814;SDS011;9031;50.974;11.330;2023-03-04T16:05:07;3.07;;;1.90;;
17814;SDS011;9031;50.974;11.330;2023-03-04T16:07:33;2.27;;;2.00;;
17814;SDS011;9031;50.974;11.330;2023-03-04T16:10:03;2.43;;;2.00;;
17814;SDS011;9031;50.974;11.330;2023-03-04T16:12:31;2.57;;;2.00;;
17814;SDS011;9031;50.974;11.330;2023-03-04T16:14:57;4.30;;;2.30;;
17814;SDS011;9031;50.974;11.330;2023-03-04T16:17:23;1.80;;;1.70;;
17814;SDS011;9031;50.974;11.330;2023-03-04T16:19:48;2.33;;;2.13;;
17814;SDS011;9031;50.974;11.330;2023-03-04T16:22:18;1.60;;;1.50;;
17814;SDS011;9031;50.974;11.330;2023-03-04T16:24:51;2.10;;;1.60;;
17814;SDS011;9031;50.974;11.330;2023-03-04T16:27:18;1.90;;;1.80;;
17814;SDS011;9031;50.974;11.330;2023-03-04T16:29:46;1.97;;;1.73;;
17814;SDS011;9031;50.974;11.330;2023-03-04T16:32:11;2.33;;;1.93;;
17814;SDS011;9031;50.974;11.330;2023-03-04T16:34:37;2.40;;;2.20;;
17814;SDS011;9031;50.974;11.330;2023-03-04T16:37:06;2.60;;;2.40;;
17814;SDS011;9031;50.974;11.330;2023-03-04T16:39:38;2.70;;;2.50;;
17814;SDS011;9031;50.974;11.330;2023-03-04T16:42:09;3.67;;;2.83;;